createdAt,value
2022-10-19T00:01:23.852Z,102008.16
2022-10-19T00:04:11.277Z,102013.97
2022-10-19T00:06:58.684Z,102029.19
2022-10-19T00:09:46.114Z,102015.31
2022-10-19T00:12:33.560Z,102021.72
2022-10-19T00:15:21.062Z,102022.25
2022-10-19T00:18:09.659Z,102013.38
2022-10-19T00:21:06.242Z,102020.28
2022-10-19T00:23:54.079Z,102015.03
2022-10-19T00:26:44.275Z,102020.56
2022-10-19T00:29:32.111Z,102016.41
2022-10-19T00:32:19.641Z,102017.50
2022-10-19T00:35:08.062Z,102017.22
2022-10-19T00:37:55.351Z,102029.38
2022-10-19T00:40:42.985Z,102022.19
2022-10-19T00:43:32.028Z,102024.09
2022-10-19T00:46:19.443Z,102024.13
2022-10-19T00:49:28.684Z,102026.03
2022-10-19T00:52:24.881Z,102022.19
2022-10-19T00:55:13.959Z,102018.56
2022-10-19T00:58:04.099Z,102018.84
2022-10-19T01:00:51.607Z,102014.97
2022-10-19T01:03:40.630Z,102022.97
2022-10-19T01:06:28.830Z,102022.97
2022-10-19T01:09:16.167Z,102031.59
2022-10-19T01:12:51.499Z,102014.66
2022-10-19T01:16:06.433Z,102016.03
2022-10-19T01:19:38.614Z,102019.38
2022-10-19T01:23:25.814Z,102008.84
2022-10-19T01:26:28.191Z,102009.41
2022-10-19T01:29:55.918Z,102007.72
2022-10-19T01:33:19.961Z,102006.91
2022-10-19T01:36:14.711Z,102006.91
2022-10-19T01:39:36.320Z,101998.34
2022-10-19T01:42:45.021Z,101999.19
2022-10-19T01:46:13.270Z,101992.50
2022-10-19T01:49:29.539Z,101988.09
2022-10-19T01:52:23.534Z,101989.75
2022-10-19T01:55:17.690Z,101990.56
2022-10-19T01:58:15.841Z,101988.66
2022-10-19T02:04:24.884Z,101983.97
2022-10-19T02:07:13.224Z,101980.06
2022-10-19T02:10:01.158Z,101979.53
2022-10-19T02:12:51.981Z,101984.78
2022-10-19T02:15:49.409Z,101981.75
2022-10-19T02:18:49.270Z,101977.84
2022-10-19T02:21:36.736Z,101973.69
2022-10-19T02:24:24.062Z,101987.25
2022-10-19T02:27:12.223Z,101978.34
2022-10-19T02:29:59.962Z,101973.34
2022-10-19T02:32:47.374Z,101971.13
2022-10-19T02:35:35.518Z,101976.13
2022-10-19T02:38:25.301Z,101976.13
2022-10-19T02:41:31.286Z,101976.13
2022-10-19T02:44:40.000Z,101971.13
2022-10-19T02:47:54.842Z,101982.25
2022-10-19T02:50:49.956Z,101970.03
2022-10-19T02:53:37.287Z,101978.13
2022-10-19T02:56:24.958Z,101967.03
2022-10-19T02:59:12.245Z,101981.97
2022-10-19T03:01:59.565Z,101977.25
2022-10-19T03:07:54.678Z,101986.13
2022-10-19T03:10:42.012Z,101976.72
2022-10-19T03:13:29.365Z,101987.50
2022-10-19T03:16:16.691Z,101989.44
2022-10-19T03:19:04.053Z,101982.75
2022-10-19T03:21:51.367Z,101989.16
2022-10-19T03:24:38.712Z,101985.25
2022-10-19T03:27:26.029Z,101991.88
2022-10-19T03:30:13.377Z,101991.06
2022-10-19T03:33:00.674Z,101995.47
2022-10-19T03:35:48.191Z,101997.16
2022-10-19T03:38:35.541Z,102000.47
2022-10-19T03:41:28.237Z,102014.31
2022-10-19T03:44:15.609Z,102009.03
2022-10-19T03:47:02.911Z,102008.47
2022-10-19T03:49:50.714Z,102006.22
2022-10-19T03:52:38.006Z,102011.22
2022-10-19T03:55:25.314Z,102017.03
2022-10-19T03:58:12.882Z,102007.09
2022-10-19T04:01:00.735Z,102022.84
2022-10-19T04:03:57.122Z,102023.16
2022-10-19T04:06:48.848Z,102023.72
2022-10-19T04:09:36.179Z,102020.94
2022-10-19T04:12:23.697Z,102017.84
2022-10-19T04:15:11.224Z,102028.41
2022-10-19T04:17:58.564Z,102032.03
2022-10-19T04:20:45.966Z,102035.06
2022-10-19T04:23:36.339Z,102037.00
2022-10-19T04:26:23.745Z,102036.44
2022-10-19T04:29:12.539Z,102030.34
2022-10-19T04:31:59.958Z,102030.03
2022-10-19T04:34:47.282Z,102026.97
2022-10-19T04:37:34.990Z,102021.72
2022-10-19T04:40:22.554Z,102032.53
2022-10-19T04:43:09.834Z,102030.84
2022-10-19T04:45:57.155Z,102041.94
2022-10-19T04:48:48.056Z,102040.56
2022-10-19T04:51:35.763Z,102033.94
2022-10-19T04:54:23.271Z,102037.53
2022-10-19T04:57:10.603Z,102054.97
2022-10-19T04:59:57.884Z,102039.47
2022-10-19T05:02:47.571Z,102038.09
2022-10-19T05:05:35.818Z,102038.94
2022-10-19T05:08:23.105Z,102045.28
2022-10-19T05:11:14.923Z,102048.88
2022-10-19T05:14:02.238Z,102051.94
2022-10-19T05:16:49.525Z,102055.53
2022-10-19T05:19:36.804Z,102058.59
2022-10-19T05:22:25.033Z,102060.25
2022-10-19T05:25:12.400Z,102068.84
2022-10-19T05:27:59.825Z,102067.47
2022-10-19T05:30:49.048Z,102065.00
2022-10-19T05:33:37.244Z,102068.03
2022-10-19T05:36:32.331Z,102076.34
2022-10-19T05:39:19.725Z,102074.13
2022-10-19T05:42:11.439Z,102079.38
2022-10-19T05:44:59.065Z,102079.94
2022-10-19T05:47:46.367Z,102073.84
2022-10-19T05:50:33.727Z,102077.72
2022-10-19T05:53:21.400Z,102078.81
2022-10-19T05:56:16.603Z,102076.88
2022-10-19T05:59:10.264Z,102075.22
2022-10-19T06:01:57.602Z,102082.44
2022-10-19T06:04:44.916Z,102074.94
2022-10-19T06:07:32.657Z,102081.06
2022-10-19T06:10:21.316Z,102081.59
2022-10-19T06:13:09.843Z,102083.84
2022-10-19T06:15:57.184Z,102075.50
2022-10-19T06:18:45.577Z,102080.16
2022-10-19T06:21:35.267Z,102085.41
2022-10-19T06:24:22.560Z,102091.44
2022-10-19T06:27:09.904Z,102092.25
2022-10-19T06:29:57.201Z,102091.41
2022-10-19T06:32:44.503Z,102102.22
2022-10-19T06:35:31.887Z,102097.75
2022-10-19T06:38:19.180Z,102098.78
2022-10-19T06:41:07.297Z,102102.16
2022-10-19T06:43:55.973Z,102108.56
2022-10-19T06:46:43.231Z,102105.22
2022-10-19T06:49:30.558Z,102100.47
2022-10-19T06:52:17.825Z,102106.88
2022-10-19T06:55:06.158Z,102115.97
2022-10-19T06:57:53.399Z,102124.59
2022-10-19T07:00:41.103Z,102118.22
2022-10-19T07:03:30.626Z,102122.94
2022-10-19T07:06:18.116Z,102131.47
2022-10-19T07:09:05.720Z,102125.66
2022-10-19T07:11:53.083Z,102133.69
2022-10-19T07:14:40.412Z,102131.69
2022-10-19T07:17:27.759Z,102127.56
2022-10-19T07:20:15.062Z,102125.00
2022-10-19T07:23:02.795Z,102131.91
2022-10-19T07:25:52.566Z,102126.09
2022-10-19T07:28:43.947Z,102132.16
2022-10-19T07:31:32.764Z,102136.53
2022-10-19T07:34:20.041Z,102138.50
2022-10-19T07:37:07.391Z,102143.16
2022-10-19T07:39:54.680Z,102134.44
2022-10-19T07:42:41.922Z,102135.84
2022-10-19T07:45:30.071Z,102138.63
2022-10-19T07:48:17.372Z,102130.78
2022-10-19T07:51:09.088Z,102138.22
2022-10-19T07:53:58.474Z,102140.44
2022-10-19T07:56:45.660Z,102141.75
2022-10-19T07:59:32.952Z,102155.34
2022-10-19T08:02:20.568Z,102159.13
2022-10-19T08:05:11.621Z,102157.38
2022-10-19T08:07:59.430Z,102166.53
2022-10-19T08:10:46.714Z,102163.44
2022-10-19T08:13:34.627Z,102162.47
2022-10-19T08:16:44.324Z,102161.38
2022-10-19T08:19:31.660Z,102172.97
2022-10-19T08:22:19.039Z,102168.38
2022-10-19T08:25:06.825Z,102170.72
2022-10-19T08:27:54.139Z,102173.69
2022-10-19T08:30:41.570Z,102166.34
2022-10-19T08:33:28.860Z,102164.25
2022-10-19T08:36:17.293Z,102171.59
2022-10-19T08:39:09.344Z,102176.34
2022-10-19T08:42:23.743Z,102177.09
2022-10-19T08:48:49.429Z,102184.78
2022-10-19T08:51:43.196Z,102187.31
2022-10-19T08:54:54.911Z,102192.03
2022-10-19T08:58:29.931Z,102181.47
2022-10-19T09:01:52.164Z,102176.63
2022-10-19T09:04:50.372Z,102182.13
2022-10-19T09:07:45.647Z,102183.34
2022-10-19T09:10:42.316Z,102189.59
2022-10-19T09:14:06.172Z,102186.94
2022-10-19T09:17:04.199Z,102189.44
2022-10-19T09:19:52.865Z,102196.75
2022-10-19T09:22:43.957Z,102199.97
2022-10-19T09:25:38.321Z,102206.81
2022-10-19T09:28:47.566Z,102203.44
2022-10-19T09:31:40.976Z,102204.31
2022-10-19T09:34:58.941Z,102201.25
2022-10-19T09:37:51.521Z,102197.34
2022-10-19T09:40:38.775Z,102202.00
2022-10-19T09:43:28.271Z,102208.56
2022-10-19T09:46:42.115Z,102208.34
2022-10-19T09:49:47.224Z,102221.03
2022-10-19T09:52:41.547Z,102223.34
2022-10-19T09:55:56.049Z,102215.69
2022-10-19T09:58:58.912Z,102223.22
2022-10-19T10:01:46.339Z,102213.28
2022-10-19T10:04:36.490Z,102216.59
2022-10-19T10:07:39.230Z,102228.69
2022-10-19T10:13:55.517Z,102221.63
2022-10-19T10:16:43.209Z,102226.91
2022-10-19T10:22:37.805Z,102219.91
2022-10-19T10:25:36.225Z,102214.13
2022-10-19T10:28:29.446Z,102222.63
2022-10-19T10:31:27.428Z,102219.31
2022-10-19T10:34:46.327Z,102218.53
2022-10-19T10:37:45.966Z,102226.66
2022-10-19T10:40:33.649Z,102214.28
2022-10-19T10:43:33.679Z,102225.81
2022-10-19T10:46:29.118Z,102222.97
2022-10-19T10:49:34.664Z,102222.56
2022-10-19T10:52:23.606Z,102216.56
2022-10-19T10:55:10.789Z,102216.34
2022-10-19T10:58:34.783Z,102219.69
2022-10-19T11:01:39.707Z,102217.91
2022-10-19T11:04:42.399Z,102213.94
2022-10-19T11:07:36.050Z,102216.31
2022-10-19T11:10:41.384Z,102222.81
2022-10-19T11:13:48.816Z,102219.94
2022-10-19T11:16:46.881Z,102213.41
2022-10-19T11:19:45.369Z,102217.16
2022-10-19T11:23:04.506Z,102215.28
2022-10-19T11:26:28.037Z,102217.38
2022-10-19T11:29:42.606Z,102207.81
2022-10-19T11:33:16.097Z,102208.53
2022-10-19T11:36:38.027Z,102199.31
2022-10-19T11:40:05.758Z,102203.78
2022-10-19T11:43:29.407Z,102202.66
2022-10-19T11:46:26.347Z,102202.66
2022-10-19T11:49:56.391Z,102201.16
2022-10-19T11:53:15.891Z,102194.09
2022-10-19T11:57:08.313Z,102186.63
2022-10-19T12:00:37.517Z,102188.19
2022-10-19T12:04:36.899Z,102185.34
2022-10-19T12:07:56.843Z,102190.63
2022-10-19T12:11:49.170Z,102195.69
2022-10-19T12:14:46.766Z,102189.47
2022-10-19T12:17:42.600Z,102186.75
2022-10-19T12:20:45.749Z,102183.44
2022-10-19T12:23:41.445Z,102181.47
2022-10-19T12:26:37.187Z,102180.78
2022-10-19T12:29:41.970Z,102186.25
2022-10-19T12:32:44.821Z,102192.03
2022-10-19T12:36:19.631Z,102189.09
2022-10-19T12:40:05.260Z,102181.84
2022-10-19T12:43:14.713Z,102175.78
2022-10-19T12:46:30.638Z,102184.63
2022-10-19T12:49:51.706Z,102177.72
2022-10-19T12:52:52.351Z,102175.44
2022-10-19T12:55:42.346Z,102173.28
2022-10-19T12:58:47.632Z,102172.25
2022-10-19T13:01:35.162Z,102172.06
2022-10-19T13:04:37.758Z,102179.44
2022-10-19T13:07:31.950Z,102165.09
2022-10-19T13:10:27.350Z,102162.38
2022-10-19T13:13:56.600Z,102165.22
2022-10-19T13:17:09.107Z,102161.34
2022-10-19T13:20:19.387Z,102157.81
2022-10-19T13:23:06.519Z,102151.63
2022-10-19T13:26:35.546Z,102153.94
2022-10-19T13:29:39.228Z,102145.69
2022-10-19T13:32:45.952Z,102148.03
2022-10-19T13:35:36.073Z,102150.84
2022-10-19T13:38:31.413Z,102145.88
2022-10-19T13:41:25.855Z,102134.72
2022-10-19T13:44:13.903Z,102133.50
2022-10-19T13:47:19.404Z,102131.63
2022-10-19T13:50:42.911Z,102128.13
2022-10-19T13:54:24.526Z,102132.97
2022-10-19T13:57:53.155Z,102126.94
2022-10-19T14:01:54.544Z,102127.88
2022-10-19T14:05:28.462Z,102125.56
2022-10-19T14:08:55.559Z,102122.94
2022-10-19T14:11:52.790Z,102117.66
2022-10-19T14:14:44.810Z,102119.50
2022-10-19T14:17:35.276Z,102122.41
2022-10-19T14:20:30.041Z,102125.81
2022-10-19T14:23:40.274Z,102123.13
2022-10-19T14:26:31.278Z,102127.16
2022-10-19T14:29:18.650Z,102114.38
2022-10-19T14:32:06.138Z,102119.44
2022-10-19T14:38:29.817Z,102116.44
2022-10-19T14:41:36.136Z,102123.84
2022-10-19T14:44:40.395Z,102111.75
2022-10-19T14:47:27.757Z,102112.22
2022-10-19T14:50:15.284Z,102101.66
2022-10-19T14:53:39.856Z,102106.19
2022-10-19T14:56:50.300Z,102106.19
2022-10-19T14:59:50.640Z,102100.91
2022-10-19T15:02:47.114Z,102100.09
2022-10-19T15:05:46.854Z,102102.22
2022-10-19T15:08:47.902Z,102091.47
2022-10-19T15:11:46.793Z,102092.13
2022-10-19T15:14:35.383Z,102088.59
2022-10-19T15:17:32.089Z,102092.66
2022-10-19T15:20:44.156Z,102100.31
2022-10-19T15:23:51.755Z,102102.84
2022-10-19T15:26:39.103Z,102100.78
2022-10-19T15:29:30.078Z,102105.09
2022-10-19T15:32:31.924Z,102103.63
2022-10-19T15:35:32.151Z,102113.22
2022-10-19T15:38:28.860Z,102101.69
2022-10-19T15:41:25.674Z,102105.44
2022-10-19T15:44:44.134Z,102104.78
2022-10-19T15:47:31.858Z,102108.44
2022-10-19T15:50:42.781Z,102105.47
2022-10-19T15:53:30.074Z,102104.13
2022-10-19T15:56:17.575Z,102110.88
2022-10-19T15:59:19.352Z,102103.47
2022-10-19T16:02:13.840Z,102110.75
2022-10-19T16:05:01.203Z,102100.25
2022-10-19T16:07:48.987Z,102110.25
2022-10-19T16:10:36.334Z,102105.03
2022-10-19T16:13:23.625Z,102111.66
2022-10-19T16:16:24.704Z,102121.94
2022-10-19T16:40:12.969Z,102131.78
2022-10-19T16:43:00.808Z,102137.06
2022-10-19T16:45:48.291Z,102144.00
2022-10-19T16:48:15.317Z,102139.03
2022-10-19T16:53:29.134Z,102140.38
2022-10-19T16:56:10.814Z,102140.69
2022-10-19T16:58:40.048Z,102152.00
2022-10-19T17:01:16.420Z,102144.28
2022-10-19T17:03:47.301Z,102152.03
2022-10-19T17:06:17.384Z,102154.50
2022-10-19T17:09:23.708Z,102157.28
2022-10-19T17:11:39.362Z,102155.09
2022-10-19T17:14:12.317Z,102156.19
2022-10-19T17:16:40.345Z,102158.38
2022-10-19T17:19:10.000Z,102165.31
2022-10-19T17:21:39.561Z,102166.13
2022-10-19T17:24:18.432Z,102172.47
2022-10-19T17:26:47.288Z,102174.91
2022-10-19T17:29:14.749Z,102169.63
2022-10-19T17:31:43.596Z,102171.53
2022-10-19T17:34:11.918Z,102172.09
2022-10-19T17:36:47.455Z,102174.28
2022-10-19T17:39:25.792Z,102167.91
2022-10-19T17:42:01.999Z,102170.66
2022-10-19T17:44:31.602Z,102177.84
2022-10-19T17:47:00.931Z,102175.38
2022-10-19T17:49:29.888Z,102176.16
2022-10-19T17:51:57.818Z,102169.28
2022-10-19T17:54:24.821Z,102172.84
2022-10-19T17:56:52.052Z,102172.56
2022-10-19T17:59:30.039Z,102174.19
2022-10-19T18:02:04.526Z,102178.31
2022-10-19T18:04:31.964Z,102175.25
2022-10-19T18:06:58.968Z,102184.06
2022-10-19T18:09:26.141Z,102176.06
2022-10-19T18:11:54.006Z,102176.56
2022-10-19T18:14:21.264Z,102172.94
2022-10-19T18:16:49.650Z,102181.78
2022-10-19T18:19:17.409Z,102182.59
2022-10-19T18:21:47.399Z,102174.28
2022-10-19T18:24:20.293Z,102174.25
2022-10-19T18:26:52.053Z,102181.41
2022-10-19T18:29:24.860Z,102184.16
2022-10-19T18:31:53.474Z,102184.97
2022-10-19T18:34:26.617Z,102184.97
2022-10-19T18:36:55.028Z,102191.63
2022-10-19T18:39:40.717Z,102187.97
2022-10-19T18:42:14.800Z,102186.84
2022-10-19T18:44:41.713Z,102194.00
2022-10-19T18:47:08.839Z,102186.50
2022-10-19T18:49:36.028Z,102192.84
2022-10-19T18:52:02.985Z,102184.25
2022-10-19T18:54:30.088Z,102185.34
2022-10-19T18:56:57.148Z,102183.97
2022-10-19T18:59:24.307Z,102188.59
2022-10-19T19:01:51.837Z,102191.03
2022-10-19T19:04:19.058Z,102188.81
2022-10-19T19:06:46.079Z,102179.22
2022-10-19T19:09:14.231Z,102176.44
2022-10-19T19:11:41.743Z,102175.31
2022-10-19T19:14:21.008Z,102181.16
2022-10-19T19:16:48.819Z,102180.88
2022-10-19T19:19:19.765Z,102169.78
2022-10-19T19:21:47.816Z,102178.94
2022-10-19T19:24:19.799Z,102179.75
2022-10-19T19:26:53.264Z,102175.59
2022-10-19T19:29:22.256Z,102172.19
2022-10-19T19:31:49.390Z,102170.69
2022-10-19T19:34:16.910Z,102173.63
2022-10-19T19:36:48.343Z,102174.13
2022-10-19T19:39:20.800Z,102173.56
2022-10-19T19:41:50.215Z,102177.94
2022-10-19T19:44:19.491Z,102171.56
2022-10-19T19:46:47.930Z,102172.34
2022-10-19T19:49:16.796Z,102169.84
2022-10-19T19:51:44.994Z,102167.34
2022-10-19T19:54:13.210Z,102173.09
2022-10-19T19:56:42.552Z,102169.19
2022-10-19T19:59:13.062Z,102169.16
2022-10-19T20:01:41.968Z,102173.03
2022-10-19T20:04:12.438Z,102176.31
2022-10-19T20:06:41.677Z,102175.78
2022-10-19T20:09:10.859Z,102172.16
2022-10-19T20:11:42.085Z,102178.78
2022-10-19T20:14:10.517Z,102179.81
2022-10-19T20:16:37.539Z,102179.81
2022-10-19T20:19:14.647Z,102179.28
2022-10-19T20:21:42.698Z,102190.31
2022-10-19T20:24:10.531Z,102189.22
2022-10-19T20:26:37.812Z,102184.88
2022-10-19T20:29:06.286Z,102191.47
2022-10-19T20:31:39.483Z,102185.06
2022-10-19T20:34:14.242Z,102191.63
2022-10-19T20:36:41.676Z,102196.81
2022-10-19T20:39:09.938Z,102182.13
2022-10-19T20:41:36.893Z,102196.34
2022-10-19T20:44:04.631Z,102194.66
2022-10-19T20:46:31.778Z,102202.91
2022-10-19T20:49:01.944Z,102202.00
2022-10-19T20:51:36.937Z,102204.13
2022-10-19T20:54:09.919Z,102199.44
2022-10-19T20:56:40.951Z,102204.38
2022-10-19T20:59:19.942Z,102209.06
2022-10-19T21:01:52.180Z,102206.53
2022-10-19T21:04:19.397Z,102202.38
2022-10-19T21:06:51.137Z,102205.31
2022-10-19T21:09:23.703Z,102209.16
2022-10-19T21:11:53.712Z,102206.94
2022-10-19T21:14:29.512Z,102209.41
2022-10-19T21:17:00.781Z,102213.84
2022-10-19T21:19:30.933Z,102208.31
2022-10-19T21:22:02.484Z,102206.06
2022-10-19T21:24:36.738Z,102208.81
2022-10-19T21:27:14.237Z,102194.22
2022-10-19T21:29:42.305Z,102202.72
2022-10-19T21:32:10.943Z,102198.31
2022-10-19T21:34:38.491Z,102203.84
2022-10-19T21:37:06.293Z,102189.25
2022-10-19T21:39:33.056Z,102195.25
2022-10-19T21:41:59.797Z,102195.81
2022-10-19T21:44:26.543Z,102192.81
2022-10-19T21:46:53.379Z,102197.81
2022-10-19T21:49:20.175Z,102185.44
2022-10-19T21:51:54.760Z,102183.56
2022-10-19T21:54:25.490Z,102182.16
2022-10-19T21:56:53.515Z,102188.72
2022-10-19T21:59:20.301Z,102181.56
2022-10-19T22:01:47.228Z,102173.22
2022-10-19T22:04:18.136Z,102175.91
2022-10-19T22:06:45.515Z,102191.00
2022-10-19T22:09:21.807Z,102172.50
2022-10-19T22:11:49.256Z,102176.94
2022-10-19T22:14:17.904Z,102163.16
2022-10-19T22:16:45.256Z,102169.16
2022-10-19T22:19:13.339Z,102168.56
2022-10-19T22:21:40.599Z,102154.50
2022-10-19T22:24:15.429Z,102158.66
2022-10-19T22:26:50.750Z,102154.25
2022-10-19T22:29:18.671Z,102148.44
2022-10-19T22:31:45.543Z,102147.09
2022-10-19T22:34:17.391Z,102154.50
2022-10-19T22:36:45.515Z,102152.53
2022-10-19T22:39:14.162Z,102141.81
2022-10-19T22:41:40.915Z,102143.16
2022-10-19T22:44:07.853Z,102145.09
2022-10-19T22:46:34.886Z,102145.00
2022-10-19T22:49:01.944Z,102144.69
2022-10-19T22:51:28.963Z,102147.69
2022-10-19T22:53:56.034Z,102148.47
2022-10-19T22:56:23.051Z,102155.13
2022-10-19T22:58:50.048Z,102142.69
2022-10-19T23:01:17.944Z,102135.47
2022-10-19T23:03:45.028Z,102125.19
2022-10-19T23:06:15.671Z,102130.97
2022-10-19T23:08:44.542Z,102132.88
2022-10-19T23:11:13.151Z,102129.53
2022-10-19T23:13:41.344Z,102135.53
2022-10-19T23:16:10.133Z,102129.47
2022-10-19T23:18:41.222Z,102124.78
2022-10-19T23:21:13.385Z,102124.53
2022-10-19T23:23:41.775Z,102126.47
2022-10-19T23:26:19.011Z,102140.41
2022-10-19T23:28:49.987Z,102138.38
2022-10-19T23:31:26.190Z,102141.41
2022-10-19T23:33:57.312Z,102136.38
2022-10-19T23:36:28.936Z,102136.63
2022-10-19T23:38:58.767Z,102144.88
2022-10-19T23:41:26.251Z,102145.97
2022-10-19T23:43:53.148Z,102142.63
2022-10-19T23:46:20.707Z,102143.47
2022-10-19T23:48:47.632Z,102148.97
2022-10-19T23:51:19.517Z,102142.06
2022-10-19T23:53:50.531Z,102145.81
2022-10-19T23:56:26.471Z,102151.22
2022-10-19T23:58:54.993Z,102153.38
